Time;durP1;ratioP1;P1;durP2;ratioP2;P2;SDS_P1;SDS_P2;PMS_P1;PMS_P2;Temp;Humidity;BMP_temperature;BMP_pressure;BME280_temperature;BME280_humidity;BME280_pressure;Samples;Min_cycle;Max_cycle;Signal;HPM_P1;HPM_P2
2022/04/22 00:01:41;;;;;;;8.23;5.03;;;;;;;12.20;67.18;101094.59;5058308;28;20044;-83
2022/04/22 00:04:07;;;;;;;7.05;5.43;;;;;;;12.19;67.00;101096.38;5022106;28;20365;-83
2022/04/22 00:06:32;;;;;;;7.78;5.28;;;;;;;12.20;66.79;101094.59;5048374;28;20079;-83
2022/04/22 00:08:58;;;;;;;6.93;5.28;;;;;;;12.20;66.82;101099.84;5038867;28;20109;-83
2022/04/22 00:11:29;;;;;;;6.53;4.80;;;;;;;12.19;66.92;101098.16;5057231;28;20412;-83
2022/04/22 00:13:59;;;;;;;6.43;5.18;;;;;;;12.18;66.94;101093.81;5059756;28;20035;-83
2022/04/22 00:16:26;;;;;;;6.18;5.57;;;;;;;12.20;66.96;101099.84;5076755;28;20051;-83
2022/04/22 00:18:51;;;;;;;6.57;4.75;;;;;;;12.21;66.87;101096.31;5058784;28;20240;-83
2022/04/22 00:21:17;;;;;;;8.07;4.70;;;;;;;12.24;66.75;101101.41;5042135;28;20056;-83
2022/04/22 00:23:42;;;;;;;5.20;4.25;;;;;;;12.22;66.54;101090.97;5076680;28;20033;-83
2022/04/22 00:26:08;;;;;;;5.07;4.70;;;;;;;12.22;66.79;101090.97;5075967;28;20064;-83
2022/04/22 00:28:34;;;;;;;5.10;4.70;;;;;;;12.23;66.71;101090.06;5076570;28;20047;-83
2022/04/22 00:30:59;;;;;;;6.47;4.72;;;;;;;12.21;66.71;101097.16;5058999;28;20040;-83
2022/04/22 00:33:25;;;;;;;4.18;3.80;;;;;;;12.22;66.59;101088.31;5058178;28;20066;-83
2022/04/22 00:35:50;;;;;;;5.07;4.57;;;;;;;12.20;66.76;101094.59;5045235;28;20328;-83
2022/04/22 00:38:16;;;;;;;4.85;4.30;;;;;;;12.16;66.91;101095.63;5076205;28;20048;-83
2022/04/22 00:40:42;;;;;;;5.25;4.53;;;;;;;12.15;66.48;101091.28;5061087;28;20296;-83
2022/04/22 00:43:18;;;;;;;10.40;4.53;;;;;;;12.14;66.44;101089.59;5042465;28;20036;-83
2022/04/22 00:45:44;;;;;;;4.78;4.32;;;;;;;12.10;66.21;101084.47;5079378;28;20040;-83
2022/04/22 00:48:09;;;;;;;6.15;4.57;;;;;;;12.09;66.06;101085.38;5062148;28;20048;-83
2022/04/22 00:50:35;;;;;;;4.00;3.70;;;;;;;12.04;66.67;101090.00;5058968;28;20049;-83
2022/04/22 00:53:01;;;;;;;4.10;3.70;;;;;;;12.05;66.08;101085.59;5062002;28;20052;-83
2022/04/22 00:55:28;;;;;;;4.60;4.13;;;;;;;12.05;66.30;101083.81;5061508;28;20062;-83
2022/04/22 00:57:54;;;;;;;4.55;3.65;;;;;;;12.04;65.99;101073.38;5061840;28;20225;-83
2022/04/22 01:00:20;;;;;;;8.48;4.10;;;;;;;11.99;66.43;101084.09;5027981;28;20055;-83
2022/04/22 01:02:45;;;;;;;5.00;3.85;;;;;;;11.99;66.37;101072.72;5079640;28;20119;-83
2022/04/22 01:10:38;;;;;;;4.20;3.80;;;;;;;11.92;66.67;101068.69;5078291;28;20043;-83
2022/04/22 01:13:07;;;;;;;3.95;3.63;;;;;;;11.92;66.25;101059.03;5079831;28;20293;-83
2022/04/22 01:15:34;;;;;;;6.00;4.03;;;;;;;11.91;66.52;101065.19;5079345;28;20058;-83
2022/04/22 01:18:00;;;;;;;7.85;4.25;;;;;;;11.90;66.32;101061.72;5061463;28;20036;-83
2022/04/22 01:20:25;;;;;;;6.20;3.63;;;;;;;11.89;66.21;101065.22;5061060;28;20050;-83
2022/04/22 01:22:51;;;;;;;4.18;3.47;;;;;;;11.84;66.80;101061.06;5079134;28;20044;-83
2022/04/22 01:25:16;;;;;;;4.53;3.58;;;;;;;11.82;66.39;101057.66;5060937;28;20324;-83
2022/04/22 01:27:43;;;;;;;5.65;3.83;;;;;;;11.85;66.44;101047.88;5079313;28;20041;-83
2022/04/22 01:30:09;;;;;;;3.67;3.30;;;;;;;11.86;66.22;101056.59;5078908;28;20346;-83
2022/04/22 01:32:34;;;;;;;4.78;3.53;;;;;;;11.84;66.27;101053.19;5066792;28;20029;-83
2022/04/22 01:35:00;;;;;;;4.65;3.90;;;;;;;11.79;66.65;101057.78;5031234;28;20040;-83
2022/04/22 01:37:25;;;;;;;5.03;3.88;;;;;;;11.74;66.70;101052.75;5043995;28;20256;-83
2022/04/22 01:39:51;;;;;;;5.03;4.05;;;;;;;11.66;66.80;101055.69;5061318;28;20339;-83
2022/04/22 01:42:20;;;;;;;4.97;4.47;;;;;;;11.58;67.34;101056.94;5061085;28;20043;-83
2022/04/22 01:44:46;;;;;;;7.15;4.38;;;;;;;11.57;66.99;101058.72;5077835;28;20052;-82
2022/04/22 01:47:11;;;;;;;8.18;4.50;;;;;;;11.53;67.13;101062.34;5078190;28;20059;-83
2022/04/22 01:49:37;;;;;;;6.25;4.57;;;;;;;11.54;67.12;101056.19;5078816;28;20047;-83
2022/04/22 01:52:02;;;;;;;6.28;5.15;;;;;;;11.50;67.25;101055.47;5057434;28;20064;-83
2022/04/22 01:54:28;;;;;;;5.13;4.72;;;;;;;11.42;67.65;101049.69;5077446;28;20068;-83
2022/04/22 01:56:53;;;;;;;7.15;5.13;;;;;;;11.40;67.38;101045.41;5075170;28;20264;-83
2022/04/22 01:59:18;;;;;;;6.20;5.00;;;;;;;11.40;67.61;101048.88;5078155;28;20085;-83
2022/04/22 02:01:44;;;;;;;5.63;5.13;;;;;;;11.39;67.86;101048.94;5077891;28;20035;-83
2022/04/22 02:04:09;;;;;;;7.60;5.10;;;;;;;11.42;67.75;101043.59;5078635;28;20042;-83
2022/04/22 02:06:35;;;;;;;5.47;5.07;;;;;;;11.41;67.69;101053.22;5077742;28;20040;-83
2022/04/22 02:09:00;;;;;;;5.50;4.93;;;;;;;11.44;67.74;101044.38;5044527;28;20040;-83
2022/04/22 02:11:25;;;;;;;7.57;5.75;;;;;;;11.41;67.84;101047.16;5039345;28;20376;-83
2022/04/22 02:13:51;;;;;;;5.88;5.35;;;;;;;11.40;68.07;101041.03;5061004;28;20227;-83
2022/04/22 02:16:16;;;;;;;5.75;5.15;;;;;;;11.36;68.09;101034.22;5040475;28;20056;-83
2022/04/22 02:18:42;;;;;;;5.30;4.80;;;;;;;11.37;67.69;101030.69;5051613;28;20041;-83
2022/04/22 02:21:09;;;;;;;5.20;4.78;;;;;;;11.34;67.80;101031.63;5077130;28;20044;-83
2022/04/22 02:23:35;;;;;;;6.55;4.97;;;;;;;11.30;68.27;101027.44;5076616;28;20070;-83
2022/04/22 02:26:02;;;;;;;4.97;4.47;;;;;;;11.29;68.09;101020.47;5077514;28;20032;-83
2022/04/22 02:28:34;;;;;;;5.30;4.28;;;;;;;11.27;68.23;101018.84;5076706;28;20269;-83
2022/04/22 02:31:03;;;;;;;5.75;5.00;;;;;;;11.26;68.21;101020.63;5077400;28;20382;-83
2022/04/22 02:33:29;;;;;;;9.13;5.13;;;;;;;11.24;68.44;101014.59;5077955;28;20052;-82
2022/04/22 02:35:54;;;;;;;5.75;5.07;;;;;;;11.22;68.76;101019.03;5060114;28;20056;-82
2022/04/22 02:38:20;;;;;;;6.20;5.00;;;;;;;11.22;68.63;101023.41;5059686;28;20047;-81
2022/04/22 02:46:13;;;;;;;7.22;5.18;;;;;;;11.14;68.58;101035.06;5077226;28;20062;-84
2022/04/22 02:48:38;;;;;;;8.63;5.60;;;;;;;11.11;69.10;101031.72;5077678;28;20270;-84
2022/04/22 02:51:05;;;;;;;7.25;5.68;;;;;;;11.10;69.07;101028.25;5059489;28;20044;-84
2022/04/22 02:53:30;;;;;;;4.95;4.55;;;;;;;11.12;68.87;101021.16;5076750;28;20038;-84
2022/04/22 02:55:56;;;;;;;8.38;5.55;;;;;;;11.08;68.70;101021.38;5076718;28;20067;-84
2022/04/22 02:58:21;;;;;;;7.00;4.90;;;;;;;11.09;69.18;101013.41;5058448;28;20041;-84
2022/04/22 03:00:47;;;;;;;10.10;5.20;;;;;;;11.07;68.94;101011.78;5069329;28;20052;-84
2022/04/22 03:03:13;;;;;;;5.60;5.10;;;;;;;11.06;69.36;101015.31;5070935;28;20044;-84
2022/04/22 03:05:38;;;;;;;5.53;4.95;;;;;;;11.04;69.12;101007.53;5059566;28;20032;-84
2022/04/22 03:08:06;;;;;;;9.38;5.20;;;;;;;11.03;69.04;101004.97;5077093;28;20343;-84
2022/04/22 03:10:31;;;;;;;5.88;5.38;;;;;;;10.99;69.54;101011.22;5076666;28;20078;-84
2022/04/22 03:12:56;;;;;;;9.43;6.13;;;;;;;10.98;69.54;101004.28;5042885;28;20228;-84
2022/04/22 03:15:22;;;;;;;6.03;4.68;;;;;;;10.98;69.56;101007.75;5070175;28;20044;-84
2022/04/22 03:17:49;;;;;;;9.98;5.47;;;;;;;10.94;69.66;101014.03;5068634;28;20056;-84
2022/04/22 03:20:15;;;;;;;7.35;4.72;;;;;;;10.90;69.90;101007.22;5075013;28;20245;-84
2022/04/22 03:22:40;;;;;;;6.50;4.75;;;;;;;10.87;70.11;101008.19;5071405;28;20051;-84
2022/04/22 03:25:06;;;;;;;7.90;4.60;;;;;;;10.86;70.11;101003.88;5057053;28;20037;-84
2022/04/22 03:27:32;;;;;;;5.35;4.80;;;;;;;10.82;70.07;100998.78;5069290;28;20363;-84
2022/04/22 03:29:57;;;;;;;5.63;5.00;;;;;;;10.84;70.33;101003.09;5059534;28;20070;-84
2022/04/22 03:32:22;;;;;;;12.82;6.43;;;;;;;10.78;70.83;101000.69;5059042;28;20036;-84
2022/04/22 03:34:48;;;;;;;5.03;4.60;;;;;;;10.77;70.75;100996.38;5076850;28;20040;-84
2022/04/22 03:37:13;;;;;;;8.00;5.05;;;;;;;10.74;70.73;100999.09;5058145;28;20133;-84
2022/04/22 03:39:39;;;;;;;8.05;5.00;;;;;;;10.74;70.82;100999.09;5059426;28;20215;-84
2022/04/22 03:42:04;;;;;;;5.22;4.75;;;;;;;10.73;71.19;100987.78;5042421;28;20382;-84
2022/04/22 03:44:30;;;;;;;7.30;4.78;;;;;;;10.68;71.91;100994.13;5058712;28;20048;-84
2022/04/22 03:46:55;;;;;;;7.40;4.82;;;;;;;10.67;72.03;100998.47;5059027;28;20024;-84
2022/04/22 03:49:21;;;;;;;7.53;5.07;;;;;;;10.65;72.52;100995.06;5076518;28;20062;-84
2022/04/22 03:51:47;;;;;;;5.97;4.72;;;;;;;10.63;72.98;100991.66;5058836;28;20041;-84
2022/04/22 03:54:12;;;;;;;6.45;5.03;;;;;;;10.61;73.25;100993.50;5058826;28;20032;-84
2022/04/22 03:59:22;;;;;;;7.07;5.03;;;;;;;10.60;73.56;100988.31;5061332;28;20108;-84
2022/04/22 04:01:47;;;;;;;7.30;4.68;;;;;;;10.57;74.04;100987.50;5077145;28;20044;-84
2022/04/22 04:04:13;;;;;;;7.70;4.40;;;;;;;10.53;74.69;100992.91;5076649;28;20296;-84
2022/04/22 04:06:38;;;;;;;5.20;4.70;;;;;;;10.55;74.39;100994.56;5077018;28;20041;-84
2022/04/22 04:17:09;;;;;;;12.60;4.88;;;;;;;10.49;75.48;100993.94;5060572;28;20041;-84
2022/04/22 04:25:03;;;;;;;5.47;4.97;;;;;;;10.40;75.78;100991.69;5071051;28;20055;-84
2022/04/22 04:27:29;;;;;;;5.43;4.93;;;;;;;10.37;76.36;100990.88;5074835;28;20040;-84
2022/04/22 04:29:55;;;;;;;7.40;5.32;;;;;;;10.37;76.38;100995.28;5078364;28;20051;-84
2022/04/22 04:32:20;;;;;;;5.97;5.35;;;;;;;10.34;76.45;100992.75;5069970;28;20041;-83
2022/04/22 04:34:46;;;;;;;6.78;5.55;;;;;;;10.30;76.69;100991.16;5079134;28;20081;-84
2022/04/22 04:37:12;;;;;;;5.88;4.90;;;;;;;10.31;76.66;100992.88;5061077;28;20101;-83
2022/04/22 04:39:38;;;;;;;6.38;5.65;;;;;;;10.33;76.40;100993.66;5079590;28;20344;-84
2022/04/22 04:42:04;;;;;;;6.80;5.60;;;;;;;10.35;76.17;100997.94;5072113;28;20448;-84
2022/04/22 04:44:30;;;;;;;6.07;5.47;;;;;;;10.37;76.39;100992.66;5060165;28;20039;-84
2022/04/22 04:46:55;;;;;;;6.93;5.60;;;;;;;10.35;76.53;100995.31;5078608;28;20250;-84
2022/04/22 04:49:21;;;;;;;6.82;6.25;;;;;;;10.33;76.85;100996.28;5060142;28;20036;-84
2022/04/22 04:51:46;;;;;;;6.82;6.00;;;;;;;10.33;76.80;101001.50;5078981;28;20043;-84
2022/04/22 04:54:11;;;;;;;9.80;6.63;;;;;;;10.33;76.87;101006.75;5078090;28;20040;-83
2022/04/22 04:56:37;;;;;;;9.98;6.45;;;;;;;10.31;76.85;101008.56;5060398;28;20263;-83
2022/04/22 04:59:02;;;;;;;8.57;6.60;;;;;;;10.32;77.17;101005.06;5078530;28;20220;-84
2022/04/22 05:01:28;;;;;;;7.25;6.60;;;;;;;10.29;76.96;101005.13;5062314;28;20051;-83
2022/04/22 05:03:53;;;;;;;7.70;6.60;;;;;;;10.29;76.87;100999.91;5059244;28;20051;-84
2022/04/22 05:06:19;;;;;;;8.77;6.80;;;;;;;10.29;76.93;101007.75;5078556;28;20036;-83
2022/04/22 05:08:45;;;;;;;7.90;6.13;;;;;;;10.26;77.23;100995.63;5060601;28;20258;-83
2022/04/22 05:11:10;;;;;;;10.60;6.65;;;;;;;10.29;77.35;101005.13;5060770;28;20032;-83
2022/04/22 05:13:35;;;;;;;7.43;6.20;;;;;;;10.26;77.52;100997.38;5077852;28;20169;-83
2022/04/22 05:16:01;;;;;;;7.93;6.15;;;;;;;10.25;77.52;100996.53;5059710;28;20040;-84
2022/04/22 05:18:27;;;;;;;7.88;6.13;;;;;;;10.28;77.34;101001.66;5060028;28;20100;-83
2022/04/22 05:20:52;;;;;;;9.68;6.93;;;;;;;10.30;77.27;100997.22;5059692;28;20086;-83
2022/04/22 05:23:17;;;;;;;7.88;6.57;;;;;;;10.26;77.67;100993.03;5043348;28;20050;-84
2022/04/22 05:25:43;;;;;;;13.45;6.18;;;;;;;10.28;77.39;100993.81;5077956;28;20056;-83
2022/04/22 05:28:08;;;;;;;7.18;6.45;;;;;;;10.26;77.40;100997.38;5049774;28;20040;-83
2022/04/22 05:33:17;;;;;;;7.05;6.35;;;;;;;10.24;77.53;100994.84;5077774;28;20405;-83
2022/04/22 05:35:43;;;;;;;8.77;6.75;;;;;;;10.21;77.72;100991.50;5044435;28;20044;-83
2022/04/22 05:38:09;;;;;;;7.38;5.95;;;;;;;10.21;77.71;100992.34;5057582;28;20083;-83
2022/04/22 05:40:38;;;;;;;8.35;6.63;;;;;;;10.23;77.70;101000.97;5077021;28;20032;-83
2022/04/22 05:43:06;;;;;;;8.27;6.45;;;;;;;10.22;77.87;100999.25;5058531;28;20044;-83
2022/04/22 05:45:32;;;;;;;11.45;7.05;;;;;;;10.19;77.90;100999.38;5071219;28;20356;-83
2022/04/22 05:47:57;;;;;;;9.82;7.75;;;;;;;10.17;78.09;100994.19;5063137;28;20318;-83
2022/04/22 05:50:23;;;;;;;9.98;6.85;;;;;;;10.18;78.08;101001.13;5056033;28;20039;-83
2022/04/22 05:52:49;;;;;;;8.80;6.82;;;;;;;10.19;78.08;101007.25;5053543;28;20033;-84
2022/04/22 05:55:18;;;;;;;7.47;6.78;;;;;;;10.19;78.07;101002.84;5076757;28;20223;-83
2022/04/22 05:57:45;;;;;;;7.85;6.95;;;;;;;10.19;78.06;101004.63;5062087;28;20052;-83
2022/04/22 06:00:13;;;;;;;9.35;7.00;;;;;;;10.16;78.12;100999.50;5058429;28;20035;-84
2022/04/22 06:02:39;;;;;;;7.43;6.72;;;;;;;10.14;78.29;101002.16;5051241;28;20340;-84
2022/04/22 06:05:05;;;;;;;8.70;6.95;;;;;;;10.11;78.47;101012.72;5056148;28;20044;-84
2022/04/22 06:07:31;;;;;;;9.07;7.25;;;;;;;10.11;78.42;101006.66;5075978;28;20235;-84
2022/04/22 06:12:40;;;;;;;7.18;6.50;;;;;;;10.18;77.96;101003.75;5055508;28;20051;-82
2022/04/22 06:15:06;;;;;;;8.35;7.30;;;;;;;10.18;78.35;101005.53;5066304;28;20143;-83
2022/04/22 06:17:32;;;;;;;8.23;7.10;;;;;;;10.16;78.39;100994.25;5068459;28;20045;-83
2022/04/22 06:19:58;;;;;;;7.28;6.57;;;;;;;10.18;78.25;101000.28;5057039;28;20082;-83
2022/04/22 06:22:25;;;;;;;7.40;6.43;;;;;;;10.17;78.22;101002.06;5039104;28;20104;-83
2022/04/22 06:24:51;;;;;;;8.82;7.15;;;;;;;10.19;78.46;101002.84;5061563;28;20052;-83
2022/04/22 06:27:27;;;;;;;10.18;7.47;;;;;;;10.17;78.39;100994.19;5058723;28;20267;-83
2022/04/22 06:29:54;;;;;;;9.63;7.53;;;;;;;10.22;78.45;100996.63;5075510;28;20386;-83
2022/04/22 06:32:27;;;;;;;11.60;8.27;;;;;;;10.22;78.37;100988.78;5048553;28;20048;-83
2022/04/22 06:34:53;;;;;;;11.25;7.47;;;;;;;10.21;78.21;100986.25;5052803;28;20297;-83
2022/04/22 06:37:18;;;;;;;11.63;8.32;;;;;;;10.19;78.41;100981.91;5049265;28;20061;-83
2022/04/22 06:47:58;;;;;;;12.10;8.20;;;;;;;10.23;78.30;100977.41;5070476;28;20046;-83
2022/04/22 06:50:24;;;;;;;11.45;9.00;;;;;;;10.26;78.27;100977.31;5047764;28;20063;-83
2022/04/22 06:52:49;;;;;;;17.88;9.43;;;;;;;10.29;78.48;100981.56;5061669;28;20205;-82
2022/04/22 06:55:16;;;;;;;15.98;10.13;;;;;;;10.30;78.33;100978.91;5070986;28;20044;-83
2022/04/22 06:57:46;;;;;;;13.80;9.70;;;;;;;10.34;78.47;100975.28;5067620;28;20104;-83
2022/04/22 07:00:12;;;;;;;11.70;9.27;;;;;;;10.39;78.26;100980.34;5057150;28;20070;-83
2022/04/22 07:02:37;;;;;;;17.95;9.63;;;;;;;10.42;78.15;100979.38;5058715;28;20044;-82
2022/04/22 07:05:04;;;;;;;16.30;9.48;;;;;;;10.46;78.23;100980.97;5049947;28;20051;-83
2022/04/22 07:07:29;;;;;;;15.93;10.13;;;;;;;10.49;78.03;100986.94;5040328;28;20060;-82
2022/04/22 07:09:55;;;;;;;11.93;10.20;;;;;;;10.55;77.92;100980.59;5047153;28;20046;-83
2022/04/22 07:12:25;;;;;;;15.18;9.98;;;;;;;10.56;77.39;100979.72;5057485;28;20040;-83
2022/04/22 07:14:57;;;;;;;14.77;9.85;;;;;;;10.55;77.40;100981.47;5055589;28;20043;-83
2022/04/22 07:17:23;;;;;;;13.27;9.52;;;;;;;10.56;77.43;100979.72;5032817;28;20036;-83
2022/04/22 07:19:48;;;;;;;14.65;9.95;;;;;;;10.60;77.66;100985.69;5041043;28;20040;-83
2022/04/22 07:22:14;;;;;;;14.38;10.00;;;;;;;10.65;77.68;100978.50;5059949;28;20030;-83
2022/04/22 07:24:39;;;;;;;13.45;9.73;;;;;;;10.64;77.51;100987.25;5066248;28;20047;-83
2022/04/22 07:27:05;;;;;;;14.00;10.27;;;;;;;10.67;77.03;100979.28;5058569;28;20031;-83
2022/04/22 07:29:33;;;;;;;11.85;9.70;;;;;;;10.68;77.07;100976.63;5075455;28;20040;-83
2022/04/22 07:31:59;;;;;;;12.10;10.20;;;;;;;10.69;76.96;100975.69;5075818;28;20283;-82
2022/04/22 07:34:24;;;;;;;16.83;10.05;;;;;;;10.70;77.01;100974.78;5039857;28;20040;-83
2022/04/22 07:36:50;;;;;;;14.65;10.48;;;;;;;10.73;76.88;100977.31;5055166;28;20306;-83
2022/04/22 07:39:15;;;;;;;11.63;10.13;;;;;;;10.77;76.90;100967.56;5074920;28;20036;-83
2022/04/22 07:41:43;;;;;;;15.20;9.75;;;;;;;10.79;76.58;100963.09;5069597;28;20045;-83
2022/04/22 07:46:58;;;;;;;14.48;10.05;;;;;;;10.88;76.58;100969.75;5066305;28;20067;-83
2022/04/22 07:49:25;;;;;;;17.27;10.93;;;;;;;10.91;76.17;100970.50;5080144;28;20518;-83
2022/04/22 07:51:50;;;;;;;12.95;10.40;;;;;;;10.94;76.10;100964.25;5068916;28;20036;-83
2022/04/22 07:54:16;;;;;;;16.25;10.82;;;;;;;10.97;75.81;100963.25;5061297;28;20054;-83
2022/04/22 07:56:44;;;;;;;15.43;11.40;;;;;;;11.00;75.77;100961.38;5050310;28;20155;-83
2022/04/22 07:59:10;;;;;;;16.37;10.30;;;;;;;11.04;75.77;100959.47;5078620;28;20032;-83
2022/04/22 08:01:35;;;;;;;16.60;10.80;;;;;;;11.09;75.94;100962.78;5073198;28;20042;-83
2022/04/22 08:04:01;;;;;;;15.63;10.50;;;;;;;11.13;75.66;100964.34;5078252;28;20075;-83
2022/04/22 08:06:27;;;;;;;14.13;10.40;;;;;;;11.14;75.31;100964.28;5079594;28;20033;-84
2022/04/22 08:08:53;;;;;;;14.98;10.68;;;;;;;11.19;74.87;100958.88;5062228;28;20044;-83
2022/04/22 08:11:20;;;;;;;12.15;10.13;;;;;;;11.21;74.92;100962.28;5044589;28;20067;-83
2022/04/22 08:13:46;;;;;;;12.27;10.07;;;;;;;11.24;74.71;100956.03;5078375;28;20106;-83
2022/04/22 08:16:12;;;;;;;13.90;10.40;;;;;;;11.26;74.69;100959.44;5078059;28;20250;-83
2022/04/22 08:18:37;;;;;;;18.45;10.50;;;;;;;11.28;74.56;100950.63;5058053;28;20070;-83
2022/04/22 08:21:03;;;;;;;17.30;10.05;;;;;;;11.32;74.40;100957.44;5079134;28;20036;-83
2022/04/22 08:23:28;;;;;;;16.05;10.45;;;;;;;11.36;74.25;100952.91;5043598;28;20351;-83
2022/04/22 08:25:55;;;;;;;15.20;9.88;;;;;;;11.37;73.71;100962.50;5078240;28;20040;-82
2022/04/22 08:28:20;;;;;;;16.42;10.52;;;;;;;11.41;73.65;100957.97;5065018;28;20035;-83
2022/04/22 08:30:46;;;;;;;13.55;9.52;;;;;;;11.44;73.70;100955.22;5073742;28;20029;-83
2022/04/22 08:33:12;;;;;;;17.77;10.32;;;;;;;11.45;73.44;100956.94;5061222;28;20040;-83
2022/04/22 08:35:37;;;;;;;14.13;9.88;;;;;;;11.48;73.77;100949.78;5061171;28;20342;-83
2022/04/22 08:38:07;;;;;;;15.50;9.80;;;;;;;11.51;73.48;100946.16;5060926;28;20048;-83
2022/04/22 08:40:35;;;;;;;16.13;10.10;;;;;;;11.53;73.18;100939.94;5060673;28;20496;-83
2022/04/22 08:43:01;;;;;;;15.18;9.60;;;;;;;11.58;73.62;100936.28;5065676;28;20040;-83
2022/04/22 08:45:27;;;;;;;12.52;9.18;;;;;;;11.62;72.90;100932.59;5078464;28;20170;-83
2022/04/22 08:50:40;;;;;;;13.48;8.85;;;;;;;11.67;72.13;100930.63;5077741;28;20078;-83
2022/04/22 08:53:08;;;;;;;13.68;9.02;;;;;;;11.69;71.85;100934.88;5078764;28;20040;-83
2022/04/22 08:55:34;;;;;;;16.42;9.98;;;;;;;11.72;72.08;100933.91;5077783;28;20036;-83
2022/04/22 08:58:03;;;;;;;13.30;9.82;;;;;;;11.76;72.22;100924.97;5078878;28;20036;-83
2022/04/22 09:00:33;;;;;;;15.13;10.05;;;;;;;11.79;72.40;100927.47;5078128;28;20359;-83
2022/04/22 09:02:59;;;;;;;14.30;10.00;;;;;;;11.86;72.01;100917.53;5079305;28;20038;-83
2022/04/22 09:05:25;;;;;;;13.18;9.27;;;;;;;11.88;71.83;100919.19;5078119;28;20040;-83
2022/04/22 09:07:51;;;;;;;21.52;9.52;;;;;;;11.97;71.43;100915.34;5078279;28;20363;-83
2022/04/22 09:10:17;;;;;;;18.05;10.00;;;;;;;12.01;71.09;100902.91;5078019;28;20294;-83
2022/04/22 09:12:52;;;;;;;14.93;10.15;;;;;;;12.05;71.07;100915.81;5060724;28;20032;-83
2022/04/22 09:15:20;;;;;;;13.60;9.88;;;;;;;12.09;70.96;100900.78;5077395;28;20040;-83
2022/04/22 09:17:46;;;;;;;15.55;9.80;;;;;;;12.15;70.98;100897.00;5078916;28;20039;-83
2022/04/22 09:20:15;;;;;;;17.23;9.50;;;;;;;12.23;71.06;100900.16;5042606;28;20292;-83
2022/04/22 09:22:44;;;;;;;15.23;9.82;;;;;;;12.27;70.74;100891.19;5078279;28;20112;-83
2022/04/22 09:25:09;;;;;;;17.17;9.98;;;;;;;12.29;70.68;100894.59;5078235;28;20037;-83
2022/04/22 09:27:42;;;;;;;13.32;9.50;;;;;;;12.31;70.24;100892.75;5060293;28;20059;-83
2022/04/22 09:30:09;;;;;;;12.75;9.60;;;;;;;12.35;70.28;100896.97;5065229;28;20347;-83
2022/04/22 09:32:39;;;;;;;11.35;8.45;;;;;;;12.42;69.65;100894.88;5076400;28;20043;-83
2022/04/22 09:35:17;;;;;;;22.15;9.05;;;;;;;12.49;68.05;100880.53;5074866;28;20103;-83
2022/04/22 09:43:47;;;;;;;12.85;7.75;;;;;;;12.73;67.67;100872.38;5065439;28;20076;-83
2022/04/22 09:46:32;;;;;;;13.52;7.85;;;;;;;12.90;65.93;100853.13;5077639;28;20257;-83
2022/04/22 09:48:58;;;;;;;14.98;7.65;;;;;;;12.91;66.10;100868.00;5077953;28;20059;-83
2022/04/22 09:51:27;;;;;;;14.02;8.15;;;;;;;12.98;66.19;100862.34;5077388;28;20033;-83
2022/04/22 09:54:08;;;;;;;17.45;8.05;;;;;;;13.10;66.23;100850.38;5059914;28;20037;-83
2022/04/22 09:56:33;;;;;;;15.07;7.63;;;;;;;13.15;66.56;100858.88;5059351;28;20032;-83
2022/04/22 09:59:19;;;;;;;14.57;8.43;;;;;;;13.23;64.59;100847.97;5059893;28;20047;-83
2022/04/22 10:01:46;;;;;;;16.23;7.15;;;;;;;13.33;64.68;100840.47;5076586;28;20083;-83
2022/04/22 10:04:11;;;;;;;8.63;7.20;;;;;;;13.41;65.10;100847.03;5077161;28;20037;-83
2022/04/22 10:06:38;;;;;;;9.30;7.85;;;;;;;13.40;65.47;100841.84;5075831;28;20298;-83
2022/04/22 10:09:03;;;;;;;28.55;8.48;;;;;;;13.48;65.70;100841.44;5058880;28;20043;-83
2022/04/22 10:11:29;;;;;;;12.38;7.63;;;;;;;13.52;63.60;100837.75;5059174;28;20044;-83
2022/04/22 10:13:56;;;;;;;13.80;6.38;;;;;;;13.54;62.48;100836.72;5077817;28;20056;-84
2022/04/22 10:16:22;;;;;;;25.60;6.80;;;;;;;13.59;62.49;100826.78;5073924;28;20102;-84
2022/04/22 10:18:48;;;;;;;12.73;7.13;;;;;;;13.69;63.14;100831.56;5066840;28;20036;-83
2022/04/22 10:21:14;;;;;;;16.08;7.63;;;;;;;13.77;63.27;100829.34;5038656;28;20032;-84
2022/04/22 10:23:40;;;;;;;10.75;7.28;;;;;;;13.82;63.66;100828.19;5057359;28;20355;-83
2022/04/22 10:26:06;;;;;;;12.02;7.93;;;;;;;13.87;63.53;100835.81;5058029;28;20093;-84
2022/04/22 10:28:32;;;;;;;12.38;8.20;;;;;;;13.91;64.17;100832.09;5051414;28;20044;-84
2022/04/22 10:31:00;;;;;;;19.88;7.32;;;;;;;13.98;63.35;100822.91;5059454;28;20036;-84
2022/04/22 10:33:46;;;;;;;11.60;6.50;;;;;;;14.03;61.51;100835.84;5066022;28;20364;-83
2022/04/22 10:36:14;;;;;;;11.75;6.53;;;;;;;14.08;60.66;100839.06;5073592;28;20145;-83
2022/04/22 10:38:43;;;;;;;9.65;6.28;;;;;;;14.11;60.20;100828.34;5049631;28;20057;-83
2022/04/22 10:41:28;;;;;;;25.63;6.30;;;;;;;14.13;59.70;100825.63;5051940;28;20035;-82
2022/04/22 10:49:41;;;;;;;6.82;6.13;;;;;;;14.09;58.99;100824.13;5048442;28;20541;-83
2022/04/22 10:52:19;;;;;;;6.57;5.97;;;;;;;14.06;59.39;100825.16;5052794;28;20032;-83
2022/04/22 10:54:53;;;;;;;22.00;6.70;;;;;;;14.09;59.59;100813.59;5047349;28;20036;-83
2022/04/22 10:57:21;;;;;;;7.90;5.90;;;;;;;14.17;59.72;100819.25;5054941;28;20104;-83
2022/04/22 11:00:03;;;;;;;7.40;6.22;;;;;;;14.23;60.66;100799.66;5049539;28;20045;-83
2022/04/22 11:02:33;;;;;;;8.18;6.53;;;;;;;14.31;60.90;100813.22;5052563;28;20040;-83
2022/04/22 11:05:19;;;;;;;13.10;6.65;;;;;;;14.35;60.59;100810.34;5053008;28;20060;-83
2022/04/22 11:07:51;;;;;;;7.93;6.80;;;;;;;14.39;59.45;100809.22;5052993;28;20036;-82
2022/04/22 11:10:21;;;;;;;8.95;6.28;;;;;;;14.37;59.97;100797.06;5056562;28;20040;-83
2022/04/22 11:12:54;;;;;;;7.28;6.20;;;;;;;14.35;59.56;100810.34;5057685;28;20041;-83
2022/04/22 11:15:46;;;;;;;14.15;6.88;;;;;;;14.31;58.67;100800.06;5055073;28;20085;-83
2022/04/22 11:18:16;;;;;;;8.95;5.95;;;;;;;14.27;59.41;100807.28;5055000;28;20212;-83
2022/04/22 11:20:50;;;;;;;7.82;5.68;;;;;;;14.24;58.83;100793.44;5038373;28;20175;-83
2022/04/22 11:23:16;;;;;;;11.30;6.20;;;;;;;14.21;58.89;100802.38;5049420;28;20120;-83
2022/04/22 11:25:46;;;;;;;6.95;5.68;;;;;;;14.15;59.31;100798.31;5045293;28;20162;-84
2022/04/22 11:28:13;;;;;;;9.77;6.15;;;;;;;14.11;58.91;100791.47;5052570;28;20307;-83
2022/04/22 11:30:39;;;;;;;6.47;5.80;;;;;;;14.07;59.25;100797.03;5055706;28;20033;-83
2022/04/22 11:33:24;;;;;;;6.80;6.07;;;;;;;14.02;58.85;100798.13;5036214;28;20045;-83
2022/04/22 11:35:56;;;;;;;13.85;6.00;;;;;;;14.02;59.23;100798.13;5050246;28;20056;-83
2022/04/22 11:38:22;;;;;;;8.40;5.63;;;;;;;14.04;58.23;100792.75;5069883;28;20044;-83
2022/04/22 11:40:49;;;;;;;7.35;5.22;;;;;;;14.04;59.19;100790.13;5050293;28;20359;-83
2022/04/22 11:43:17;;;;;;;6.38;5.40;;;;;;;14.08;59.44;100794.31;5046385;28;20068;-83
2022/04/22 11:45:44;;;;;;;7.85;5.65;;;;;;;14.15;59.97;100795.66;5048217;28;20036;-83
2022/04/22 11:48:17;;;;;;;18.52;5.63;;;;;;;14.16;60.18;100792.09;5052856;28;20086;-83
2022/04/22 11:50:45;;;;;;;7.32;5.93;;;;;;;14.17;60.45;100798.19;5049792;28;20268;-83
2022/04/22 11:53:22;;;;;;;7.35;5.57;;;;;;;14.19;59.98;100788.44;5051525;28;20029;-83
2022/04/22 11:55:48;;;;;;;5.70;5.22;;;;;;;14.19;59.16;100788.44;5052338;28;20060;-82
2022/04/22 11:58:17;;;;;;;9.07;5.80;;;;;;;14.18;60.50;100789.38;5053451;28;20041;-82
2022/04/22 12:06:16;;;;;;;6.45;5.80;;;;;;;14.16;61.07;100794.72;5049537;28;20027;-82
2022/04/22 12:08:56;;;;;;;12.73;6.10;;;;;;;14.17;61.04;100787.66;5047808;28;20096;-83
2022/04/22 12:11:23;;;;;;;9.48;5.57;;;;;;;14.18;60.86;100784.09;5049932;28;20234;-83
2022/04/22 12:13:49;;;;;;;8.98;6.22;;;;;;;14.18;60.32;100784.09;5049125;28;20028;-83
2022/04/22 12:16:23;;;;;;;7.32;5.90;;;;;;;14.16;60.60;100781.53;5043080;28;20025;-83
2022/04/22 12:18:50;;;;;;;6.53;5.85;;;;;;;14.16;60.79;100784.19;5046924;28;20032;-83
2022/04/22 12:21:18;;;;;;;9.23;6.32;;;;;;;14.17;60.80;100778.00;5044951;28;20041;-82
2022/04/22 12:23:48;;;;;;;12.77;6.20;;;;;;;14.15;60.23;100777.22;5048341;28;20035;-82
2022/04/22 12:26:22;;;;;;;20.65;6.82;;;;;;;14.13;60.53;100767.69;5048658;28;20305;-83